Time;durP1;ratioP1;P1;durP2;ratioP2;P2;SDS_P1;SDS_P2;PMS_P1;PMS_P2;Temp;Humidity;BMP_temperature;BMP_pressure;BME280_temperature;BME280_humidity;BME280_pressure;Samples;Min_cycle;Max_cycle;Signal;HPM_P1;HPM_P2
2022/07/01 00:00:36;;;;;;;16.42;9.77;;;;;;;14.61;92.98;101072.88;5093713;28;20048;-57
2022/07/01 00:03:03;;;;;;;19.55;10.23;;;;;;;14.71;92.21;101058.31;5093879;28;20036;-57
2022/07/01 00:05:30;;;;;;;18.30;10.15;;;;;;;14.68;93.97;101060.50;5093596;28;20055;-56
2022/07/01 00:07:57;;;;;;;19.10;10.30;;;;;;;14.52;92.87;101062.22;5093981;28;20048;-56
2022/07/01 00:10:24;;;;;;;20.00;10.85;;;;;;;14.59;92.76;101060.56;5093561;28;20046;-56
2022/07/01 00:12:50;;;;;;;16.55;9.50;;;;;;;14.57;91.26;101067.03;5094124;28;20052;-56
2022/07/01 00:15:17;;;;;;;18.25;10.20;;;;;;;14.44;93.75;101070.22;5093595;28;20044;-56
2022/07/01 00:17:44;;;;;;;20.70;10.70;;;;;;;14.56;92.97;101078.72;5093834;28;20055;-56
2022/07/01 00:20:11;;;;;;;19.42;10.20;;;;;;;14.58;93.27;101072.22;5093621;28;20040;-57
2022/07/01 00:22:38;;;;;;;22.95;10.65;;;;;;;14.51;94.13;101068.53;5093775;28;20036;-58
2022/07/01 00:25:06;;;;;;;18.25;10.73;;;;;;;14.50;92.28;101069.56;5093604;28;20038;-57
2022/07/01 00:27:37;;;;;;;17.63;10.35;;;;;;;14.52;93.95;101080.91;5092617;28;20048;-58
2022/07/01 00:30:04;;;;;;;17.48;10.32;;;;;;;14.70;92.71;101082.56;5092582;28;20103;-57
2022/07/01 00:32:31;;;;;;;21.55;10.43;;;;;;;14.48;93.25;101076.91;5093501;28;20036;-57
2022/07/01 00:34:58;;;;;;;21.63;10.32;;;;;;;14.46;93.67;101078.06;5091574;28;20055;-58
2022/07/01 00:37:26;;;;;;;18.48;9.95;;;;;;;14.52;94.52;101086.25;5092304;28;20126;-58
2022/07/01 00:39:53;;;;;;;19.17;10.70;;;;;;;14.52;95.59;101082.75;5095506;28;20443;-58
2022/07/01 00:42:19;;;;;;;20.48;10.77;;;;;;;14.52;93.18;101088.91;5113876;28;20071;-58
2022/07/01 00:44:46;;;;;;;18.90;10.93;;;;;;;14.59;92.74;101087.25;5097919;28;20089;-58
2022/07/01 00:47:14;;;;;;;22.42;10.80;;;;;;;14.48;94.78;101090.25;5093379;28;20052;-56
2022/07/01 00:49:40;;;;;;;18.13;9.63;;;;;;;14.50;91.70;101096.25;5091732;28;20503;-56
2022/07/01 00:52:09;;;;;;;22.08;10.07;;;;;;;14.46;92.34;101100.28;5093018;28;20052;-56
2022/07/01 00:54:37;;;;;;;22.13;10.50;;;;;;;14.56;92.40;101086.72;5093662;28;20048;-56
2022/07/01 00:57:09;;;;;;;20.98;10.10;;;;;;;14.33;91.73;101090.09;5093133;28;20044;-57
2022/07/01 00:59:38;;;;;;;19.08;10.15;;;;;;;14.28;93.86;101097.81;5093133;28;20048;-57
2022/07/01 01:02:07;;;;;;;21.92;10.82;;;;;;;14.38;94.40;101092.28;5092725;28;20044;-57
2022/07/01 01:04:34;;;;;;;28.05;10.95;;;;;;;14.36;94.32;101095.13;5093464;28;20547;-57
2022/07/01 01:07:02;;;;;;;19.10;11.00;;;;;;;14.48;94.59;101105.44;5093333;28;20036;-57
2022/07/01 01:09:30;;;;;;;21.30;11.68;;;;;;;14.57;92.51;101113.28;5093023;28;20058;-57
2022/07/01 01:11:58;;;;;;;22.98;11.18;;;;;;;14.63;92.81;101101.09;5092812;28;20047;-57
2022/07/01 01:14:25;;;;;;;27.65;12.05;;;;;;;14.66;92.04;101107.91;5093454;28;20070;-58
2022/07/01 01:16:52;;;;;;;25.23;12.13;;;;;;;14.57;91.74;101110.63;5093188;28;20066;-57
2022/07/01 01:19:18;;;;;;;23.23;12.43;;;;;;;14.62;93.80;101130.63;5093107;28;20072;-57
2022/07/01 01:21:45;;;;;;;24.42;12.77;;;;;;;14.61;92.29;101132.47;5093154;28;20393;-57
2022/07/01 01:24:12;;;;;;;26.08;13.02;;;;;;;14.66;92.40;101135.47;5093349;28;20455;-56
2022/07/01 01:26:39;;;;;;;22.85;12.15;;;;;;;14.74;91.03;101130.09;5092914;28;20032;-56
2022/07/01 01:29:07;;;;;;;24.10;11.82;;;;;;;14.51;91.02;101131.78;5092995;28;20074;-56
2022/07/01 01:31:33;;;;;;;29.02;12.98;;;;;;;14.54;90.99;101139.47;5091402;28;20402;-56
2022/07/01 01:34:00;;;;;;;29.85;12.30;;;;;;;14.58;91.39;101141.63;5092667;28;20513;-57
2022/07/01 01:36:28;;;;;;;24.38;11.48;;;;;;;14.56;92.10;101138.28;5092871;28;20028;-56
2022/07/01 01:39:00;;;;;;;22.42;10.98;;;;;;;14.58;92.67;101135.47;5092957;28;20085;-56
2022/07/01 01:41:27;;;;;;;25.88;12.10;;;;;;;14.65;91.13;101143.66;5085398;28;20444;-56
2022/07/01 01:43:53;;;;;;;25.10;11.90;;;;;;;14.57;91.65;101150.66;5093032;28;20052;-56
2022/07/01 01:46:20;;;;;;;26.40;11.40;;;;;;;14.58;91.16;101154.16;5101671;28;20040;-57
2022/07/01 01:48:47;;;;;;;27.70;11.93;;;;;;;14.49;91.18;101141.81;5092662;28;20052;-57
2022/07/01 01:51:14;;;;;;;27.10;11.50;;;;;;;14.37;93.04;101141.31;5091553;28;20117;-57
2022/07/01 01:53:40;;;;;;;26.92;12.02;;;;;;;14.36;92.48;101142.34;5092575;28;20079;-57
2022/07/01 01:56:07;;;;;;;25.63;10.90;;;;;;;14.38;92.19;101149.16;5092588;28;20127;-58
2022/07/01 01:58:34;;;;;;;26.23;11.30;;;;;;;14.46;91.69;101142.13;5092843;28;20518;-57
2022/07/01 02:01:01;;;;;;;25.42;11.73;;;;;;;14.49;91.16;101147.16;5094834;28;20074;-57
2022/07/01 02:03:28;;;;;;;22.63;10.82;;;;;;;14.46;91.09;101143.00;5096001;28;20052;-58
2022/07/01 02:05:55;;;;;;;21.13;11.55;;;;;;;14.46;92.26;101142.13;5096667;28;20515;-57
2022/07/01 02:08:22;;;;;;;28.38;11.23;;;;;;;14.31;92.15;101136.66;5096036;28;20550;-57
2022/07/01 02:10:49;;;;;;;22.33;9.90;;;;;;;14.38;90.49;101143.00;5095990;28;20444;-57
2022/07/01 02:13:18;;;;;;;21.75;10.05;;;;;;;14.34;92.32;101150.50;5096436;28;20054;-57
2022/07/01 02:15:45;;;;;;;27.42;10.32;;;;;;;14.36;92.63;101153.81;5096155;28;20047;-57
2022/07/01 02:18:12;;;;;;;24.60;9.82;;;;;;;14.26;92.28;101150.53;5095009;28;20468;-57
2022/07/01 02:20:38;;;;;;;21.40;9.10;;;;;;;14.43;90.72;101164.66;5096087;28;20093;-57
2022/07/01 02:23:06;;;;;;;21.13;11.13;;;;;;;14.36;90.89;101163.69;5095516;28;20036;-58
2022/07/01 02:25:33;;;;;;;21.23;9.60;;;;;;;14.40;90.98;101165.00;5096153;28;20074;-57
2022/07/01 02:28:00;;;;;;;25.90;9.85;;;;;;;14.37;91.05;101152.84;5096130;28;20047;-57
2022/07/01 02:30:27;;;;;;;22.35;9.50;;;;;;;14.37;92.49;101162.66;5095613;28;20056;-57
2022/07/01 02:32:54;;;;;;;17.70;9.20;;;;;;;14.42;90.19;101165.66;5096152;28;20051;-58
2022/07/01 02:35:21;;;;;;;17.60;8.75;;;;;;;14.42;90.61;101172.84;5087302;28;20067;-58
2022/07/01 02:37:48;;;;;;;18.27;8.77;;;;;;;14.48;89.92;101177.50;5095704;28;20040;-57
2022/07/01 02:40:15;;;;;;;23.42;9.02;;;;;;;14.37;91.03;101178.66;5101192;28;20052;-58
2022/07/01 02:42:42;;;;;;;20.10;9.57;;;;;;;14.29;93.62;101178.69;5115934;28;20120;-57
2022/07/01 02:45:09;;;;;;;16.98;9.02;;;;;;;14.40;92.38;101184.50;5116025;28;20050;-57
2022/07/01 02:47:37;;;;;;;17.20;8.77;;;;;;;14.52;90.51;101194.88;5115838;28;20101;-57
2022/07/01 02:50:06;;;;;;;20.80;9.10;;;;;;;14.52;90.24;101194.88;5113741;28;20113;-57
2022/07/01 02:52:35;;;;;;;18.63;8.80;;;;;;;14.46;90.17;101198.19;5095348;28;20441;-57
2022/07/01 02:55:05;;;;;;;21.13;9.55;;;;;;;14.41;90.35;101196.03;5095417;28;20047;-57
2022/07/01 02:57:32;;;;;;;24.40;9.20;;;;;;;14.28;91.52;101199.22;5095583;28;20046;-57
2022/07/01 02:59:58;;;;;;;24.23;10.40;;;;;;;14.43;91.63;101212.72;5095167;28;20044;-58
2022/07/01 03:02:25;;;;;;;22.73;9.88;;;;;;;14.48;91.12;101214.88;5094215;28;20044;-57
2022/07/01 03:04:53;;;;;;;24.77;10.68;;;;;;;14.30;90.64;101217.72;5094880;28;20032;-57
2022/07/01 03:07:20;;;;;;;20.98;10.23;;;;;;;14.35;92.43;101223.38;5114412;28;20439;-57
2022/07/01 03:09:48;;;;;;;22.80;8.95;;;;;;;14.39;89.86;101230.06;5115293;28;20487;-57
2022/07/01 03:12:32;;;;;;;23.63;9.27;;;;;;;14.35;92.43;101221.56;5115628;28;20497;-57
2022/07/01 03:15:01;;;;;;;22.75;9.35;;;;;;;14.43;91.29;101223.38;5115650;28;20396;-57
2022/07/01 03:17:29;;;;;;;22.20;9.07;;;;;;;14.36;90.39;101225.88;5115349;28;20094;-57
2022/07/01 03:19:58;;;;;;;21.80;9.98;;;;;;;14.39;93.01;101230.06;5112062;28;20050;-57
2022/07/01 03:22:28;;;;;;;22.83;9.18;;;;;;;14.48;89.56;101236.22;5094960;28;20097;-57
2022/07/01 03:24:55;;;;;;;21.00;8.85;;;;;;;14.50;90.71;101240.41;5093439;28;20433;-57
2022/07/01 03:27:23;;;;;;;19.33;8.85;;;;;;;14.46;89.31;101239.09;5094848;28;20097;-57
2022/07/01 03:29:51;;;;;;;24.35;8.73;;;;;;;14.39;90.15;101232.75;5094724;28;20100;-57
2022/07/01 03:32:18;;;;;;;18.55;9.02;;;;;;;14.41;91.36;101238.75;5093843;28;20093;-57
2022/07/01 03:34:48;;;;;;;25.08;8.50;;;;;;;14.52;90.60;101235.72;5093403;28;20058;-57
2022/07/01 03:37:16;;;;;;;21.50;7.77;;;;;;;14.41;89.23;101230.75;5095193;28;20044;-56
2022/07/01 03:39:44;;;;;;;24.73;7.88;;;;;;;14.34;89.84;101230.56;5092407;28;20044;-56
2022/07/01 03:42:11;;;;;;;22.33;7.60;;;;;;;14.34;89.88;101216.41;5074240;28;20069;-57
2022/07/01 03:44:39;;;;;;;23.23;7.45;;;;;;;14.29;92.12;101226.72;5074396;28;20544;-56
2022/07/01 03:47:06;;;;;;;22.02;7.57;;;;;;;14.44;90.77;101237.56;5074081;28;20044;-57
2022/07/01 03:49:34;;;;;;;25.92;7.25;;;;;;;14.34;91.88;101237.75;5074699;28;20044;-57
2022/07/01 03:52:02;;;;;;;24.15;7.20;;;;;;;14.35;90.65;101242.06;5093895;28;20382;-56
2022/07/01 03:54:29;;;;;;;18.33;6.50;;;;;;;14.32;92.29;101242.41;5094170;28;20089;-56
2022/07/01 03:57:00;;;;;;;15.60;6.60;;;;;;;14.38;91.09;101231.06;5094292;28;20543;-57
2022/07/01 03:59:28;;;;;;;17.10;6.00;;;;;;;14.33;90.79;101239.56;5094097;28;20138;-57
2022/07/01 04:01:56;;;;;;;16.30;6.32;;;;;;;14.45;91.26;101241.91;5092725;28;20413;-57
2022/07/01 04:04:24;;;;;;;16.20;5.68;;;;;;;14.49;90.48;101237.91;5092149;28;20062;-57
2022/07/01 04:06:52;;;;;;;22.00;6.25;;;;;;;14.51;88.33;101235.91;5094012;28;20040;-56
2022/07/01 04:09:20;;;;;;;18.48;6.03;;;;;;;14.45;88.10;101228.56;5094222;28;20485;-56
2022/07/01 04:11:48;;;;;;;15.02;5.95;;;;;;;14.49;88.13;101222.72;5101444;28;20074;-56
2022/07/01 04:14:15;;;;;;;16.85;5.78;;;;;;;14.48;87.34;101228.22;5114391;28;20067;-57
2022/07/01 04:16:44;;;;;;;14.77;5.57;;;;;;;14.56;88.41;101225.56;5114291;28;20040;-57
2022/07/01 04:19:12;;;;;;;25.80;6.35;;;;;;;14.36;88.65;101235.75;5110575;28;20050;-57
2022/07/01 04:24:26;;;;;;;15.18;5.85;;;;;;;14.41;90.75;101233.41;5093169;28;20066;-57
2022/07/01 04:26:53;;;;;;;13.48;5.80;;;;;;;14.56;89.16;101242.41;5093840;28;20048;-57
2022/07/01 04:29:20;;;;;;;15.43;5.78;;;;;;;14.66;87.27;101242.28;5093931;28;20054;-57
2022/07/01 04:31:47;;;;;;;15.13;5.63;;;;;;;14.72;86.82;101244.25;5092831;28;20079;-57
2022/07/01 04:34:14;;;;;;;17.40;5.50;;;;;;;14.70;87.79;101243.59;5089531;28;20493;-57
2022/07/01 04:36:41;;;;;;;16.63;5.53;;;;;;;14.64;87.51;101249.59;5091665;28;20075;-57
2022/07/01 04:39:08;;;;;;;18.58;5.13;;;;;;;14.72;86.34;101244.25;5093242;28;20048;-57
2022/07/01 04:42:06;;;;;;;20.30;5.90;;;;;;;14.66;87.10;101244.09;5110314;28;20089;-57
2022/07/01 04:44:22;;;;;;;13.32;5.22;;;;;;;14.45;89.39;101236.56;5113680;28;20043;-57
2022/07/01 04:46:48;;;;;;;13.50;5.38;;;;;;;14.59;87.99;101223.41;5112369;28;20044;-56
2022/07/01 04:49:15;;;;;;;16.00;4.95;;;;;;;14.61;87.03;101214.38;5073339;28;20044;-55
2022/07/01 04:51:42;;;;;;;13.80;4.93;;;;;;;14.60;85.37;101213.56;5073258;28;20079;-55
2022/07/01 04:54:09;;;;;;;15.30;5.28;;;;;;;14.68;84.86;101226.91;5073056;28;20043;-56
2022/07/01 04:56:37;;;;;;;12.65;4.90;;;;;;;14.65;86.55;101227.25;5071166;28;20068;-56
2022/07/01 04:59:06;;;;;;;15.88;4.63;;;;;;;14.56;85.35;101225.56;5072009;28;20056;-57
2022/07/01 05:01:33;;;;;;;11.45;5.47;;;;;;;14.55;86.08;101222.06;5072917;28;20439;-56
2022/07/01 05:04:00;;;;;;;16.65;4.78;;;;;;;14.53;88.46;101213.34;5092805;28;20043;-56
2022/07/01 05:06:27;;;;;;;16.65;5.03;;;;;;;14.56;86.94;101214.88;5092775;28;20105;-57
2022/07/01 05:08:53;;;;;;;13.70;4.63;;;;;;;14.53;87.60;101218.69;5093290;28;20040;-57
2022/07/01 05:11:20;;;;;;;14.27;4.63;;;;;;;14.62;86.22;101216.88;5092927;28;20048;-57
2022/07/01 05:13:47;;;;;;;13.57;4.85;;;;;;;14.69;85.65;101215.22;5093363;28;20547;-57
2022/07/01 05:16:14;;;;;;;13.57;5.40;;;;;;;14.45;87.36;101200.03;5093288;28;20048;-57
2022/07/01 05:24:14;;;;;;;13.32;5.03;;;;;;;14.53;87.95;101197.34;5093140;28;20047;-57
2022/07/01 05:26:40;;;;;;;16.50;5.05;;;;;;;14.48;87.32;101194.38;5092209;28;20036;-56
2022/07/01 05:29:07;;;;;;;20.40;5.00;;;;;;;14.45;87.07;101204.53;5092851;28;20084;-56
2022/07/01 05:31:34;;;;;;;17.88;5.07;;;;;;;14.41;87.08;101206.72;5093126;28;20059;-56
2022/07/01 05:34:01;;;;;;;16.83;5.03;;;;;;;14.52;86.81;101213.56;5092309;28;20486;-56
2022/07/01 05:36:30;;;;;;;15.52;5.05;;;;;;;14.57;87.22;101213.84;5095527;28;20040;-56
2022/07/01 05:38:56;;;;;;;17.27;5.10;;;;;;;14.77;85.77;101219.69;5096832;28;20135;-56
2022/07/01 05:41:23;;;;;;;19.90;5.50;;;;;;;14.71;85.31;101223.88;5091416;28;20066;-56
2022/07/01 05:43:50;;;;;;;15.95;5.70;;;;;;;14.72;85.12;101216.72;5095901;28;20512;-56
2022/07/01 05:46:17;;;;;;;21.45;5.13;;;;;;;14.52;85.70;101237.56;5096173;28;20044;-56
2022/07/01 05:48:44;;;;;;;18.08;5.82;;;;;;;14.71;85.83;101239.06;5096796;28;20060;-56
2022/07/01 05:51:11;;;;;;;14.30;5.63;;;;;;;14.82;86.38;101248.56;5096906;28;20047;-56
2022/07/01 05:53:38;;;;;;;15.80;5.35;;;;;;;14.77;86.57;101244.59;5096340;28;20043;-56
2022/07/01 05:56:05;;;;;;;17.55;5.70;;;;;;;14.89;85.52;101246.91;5095640;28;20040;-55
2022/07/01 05:58:32;;;;;;;16.15;6.47;;;;;;;14.85;84.44;101241.06;5095706;28;20051;-56
2022/07/01 06:00:58;;;;;;;18.17;6.43;;;;;;;14.73;84.63;101240.56;5095801;28;20493;-56
2022/07/01 06:03:34;;;;;;;18.40;5.75;;;;;;;14.72;85.34;101249.59;5095886;28;20044;-56
2022/07/01 06:06:01;;;;;;;15.65;6.32;;;;;;;14.83;84.38;101252.94;5096111;28;20107;-56
2022/07/01 06:08:27;;;;;;;17.30;6.38;;;;;;;14.84;84.58;101243.91;5096275;28;20048;-56
2022/07/01 06:10:54;;;;;;;14.50;6.55;;;;;;;14.91;85.31;101236.88;5096418;28;20036;-57
2022/07/01 06:13:21;;;;;;;15.05;6.70;;;;;;;14.88;86.48;101237.19;5096434;28;20054;-57
2022/07/01 06:15:47;;;;;;;14.52;6.70;;;;;;;14.84;84.87;101239.38;5095739;28;20044;-56
2022/07/01 06:18:14;;;;;;;19.00;6.13;;;;;;;14.98;84.59;101240.53;5095200;28;20038;-57
2022/07/01 06:20:41;;;;;;;17.95;7.03;;;;;;;14.94;85.92;101237.38;5096317;28;20040;-57
2022/07/01 06:23:08;;;;;;;17.45;6.88;;;;;;;15.04;83.88;101242.50;5096115;28;20040;-57
2022/07/01 06:25:35;;;;;;;18.85;8.13;;;;;;;15.11;83.95;101253.34;5095630;28;20044;-56
2022/07/01 06:28:01;;;;;;;18.63;7.40;;;;;;;15.00;83.74;101254.53;5095879;28;20040;-57
2022/07/01 06:30:28;;;;;;;18.85;6.97;;;;;;;14.78;83.90;101256.09;5095345;28;20102;-56
2022/07/01 06:32:55;;;;;;;19.30;6.93;;;;;;;14.97;83.94;101269.09;5094737;28;20051;-56
2022/07/01 06:35:22;;;;;;;19.17;6.95;;;;;;;14.87;85.28;101276.44;5095628;28;20040;-57
2022/07/01 06:37:48;;;;;;;16.98;6.90;;;;;;;15.01;85.81;101285.63;5080121;28;20040;-56
2022/07/01 06:40:17;;;;;;;18.88;7.55;;;;;;;15.11;84.46;101264.03;5100276;28;20047;-56
2022/07/01 06:42:44;;;;;;;20.10;7.72;;;;;;;15.03;83.50;101272.91;5115632;28;20051;-56
2022/07/01 06:45:11;;;;;;;17.70;7.00;;;;;;;15.02;83.33;101271.22;5115849;28;20043;-56
2022/07/01 06:47:38;;;;;;;14.95;6.95;;;;;;;15.07;82.75;101278.75;5115286;28;20481;-56
2022/07/01 06:50:06;;;;;;;15.80;7.20;;;;;;;15.09;81.75;101293.59;5115940;28;20123;-56
2022/07/01 06:52:32;;;;;;;15.20;7.57;;;;;;;15.11;83.64;101293.44;5115521;28;20043;-56
2022/07/01 06:55:00;;;;;;;16.15;7.25;;;;;;;15.29;81.42;101295.91;5096465;28;20509;-57
2022/07/01 06:57:29;;;;;;;16.48;7.10;;;;;;;15.26;81.53;101310.44;5094001;28;20044;-56
2022/07/01 06:59:56;;;;;;;16.52;7.53;;;;;;;15.28;81.92;101315.59;5074711;28;20385;-59
2022/07/01 07:02:23;;;;;;;15.18;7.18;;;;;;;15.35;80.85;101311.22;5112606;28;20048;-59
2022/07/01 07:04:57;;;;;;;15.52;7.25;;;;;;;15.42;81.13;101308.72;5096825;28;20078;-59
2022/07/01 07:07:25;;;;;;;17.73;6.93;;;;;;;15.34;79.33;101299.72;5073550;28;20047;-59
2022/07/01 07:09:52;;;;;;;18.23;7.43;;;;;;;15.36;79.60;101302.22;5082458;28;20543;-59
2022/07/01 07:12:19;;;;;;;16.13;6.93;;;;;;;15.44;80.40;101322.75;5098084;28;20132;-59
2022/07/01 07:14:46;;;;;;;14.68;6.78;;;;;;;15.35;79.83;101328.13;5092070;28;20055;-59
2022/07/01 07:17:12;;;;;;;17.27;7.43;;;;;;;15.40;79.86;101327.59;5087780;28;20040;-59
2022/07/01 07:19:39;;;;;;;14.70;7.75;;;;;;;15.50;78.88;101320.22;5082908;28;20043;-58
2022/07/01 07:22:06;;;;;;;20.98;7.82;;;;;;;15.41;79.25;101318.59;5090742;28;20039;-59
2022/07/01 07:24:32;;;;;;;15.52;7.85;;;;;;;15.52;78.78;101312.03;5104573;28;20058;-59
2022/07/01 07:26:59;;;;;;;16.17;7.25;;;;;;;15.47;80.43;101306.38;5107061;28;20051;-59
2022/07/01 07:29:26;;;;;;;21.15;7.43;;;;;;;15.61;80.28;101315.50;5094831;27;20044;-59
2022/07/01 07:31:52;;;;;;;17.40;6.80;;;;;;;15.65;79.78;101316.84;5101175;28;20143;-59
2022/07/01 07:34:19;;;;;;;21.35;7.93;;;;;;;15.86;78.70;101317.09;5085948;28;20122;-59
2022/07/01 07:36:46;;;;;;;13.23;6.75;;;;;;;15.97;77.49;101312.34;5100408;28;20040;-58
2022/07/01 07:39:12;;;;;;;15.23;6.50;;;;;;;15.96;77.54;101319.56;5102274;28;20544;-57
2022/07/01 07:41:39;;;;;;;21.05;6.65;;;;;;;15.92;77.88;101323.59;5102005;28;20051;-59
2022/07/01 07:44:06;;;;;;;17.48;6.30;;;;;;;15.86;78.46;101322.47;5095980;28;20040;-59
2022/07/01 07:46:32;;;;;;;12.30;6.30;;;;;;;15.80;76.76;101325.00;5086016;28;20039;-58
2022/07/01 07:49:00;;;;;;;14.48;6.28;;;;;;;15.95;77.80;101341.97;5101732;28;20071;-59
2022/07/01 07:51:27;;;;;;;16.52;6.07;;;;;;;15.99;77.42;101335.28;5101930;28;20446;-58
2022/07/01 07:53:53;;;;;;;14.05;6.03;;;;;;;16.01;75.84;101345.78;5101141;28;20040;-59
2022/07/01 07:56:20;;;;;;;13.00;6.00;;;;;;;16.10;76.35;101344.75;5095105;28;20142;-59
2022/07/01 07:58:47;;;;;;;14.70;6.60;;;;;;;16.16;76.71;101341.34;5089806;28;20390;-59
2022/07/01 08:01:14;;;;;;;20.83;6.50;;;;;;;16.36;74.52;101341.72;5084971;28;20044;-57
2022/07/01 08:03:40;;;;;;;12.63;5.80;;;;;;;16.39;74.96;101345.88;5105237;28;20043;-58
2022/07/01 08:06:07;;;;;;;14.48;6.43;;;;;;;16.25;75.19;101344.81;5096354;28;20044;-59
2022/07/01 08:08:34;;;;;;;13.18;6.18;;;;;;;16.13;75.30;101355.09;5079280;28;20054;-59
2022/07/01 08:11:01;;;;;;;14.27;5.93;;;;;;;16.15;77.45;101355.72;5105583;28;20048;-59
2022/07/01 08:13:28;;;;;;;16.23;5.55;;;;;;;16.24;75.74;101354.69;5100333;28;20112;-58
2022/07/01 08:15:55;;;;;;;12.45;5.60;;;;;;;16.23;75.43;101347.66;5105648;28;20046;-59
2022/07/01 08:18:22;;;;;;;14.13;5.75;;;;;;;16.16;76.26;101352.06;5094024;28;20128;-59
2022/07/01 08:20:52;;;;;;;17.75;5.63;;;;;;;16.41;74.01;101355.44;5097335;28;20365;-58
2022/07/01 08:23:20;;;;;;;11.57;5.50;;;;;;;16.68;73.80;101364.78;5103112;28;20044;-58
2022/07/01 08:25:49;;;;;;;15.82;5.43;;;;;;;16.74;73.44;101362.41;5106300;28;20043;-58
2022/07/01 08:28:16;;;;;;;17.55;5.20;;;;;;;16.47;71.79;101356.56;5104238;28;20044;-57
2022/07/01 08:30:43;;;;;;;12.77;5.70;;;;;;;16.36;73.10;101356.97;5101559;27;20119;-57
2022/07/01 08:33:10;;;;;;;19.02;5.55;;;;;;;16.25;74.53;101363.56;5103056;28;20048;-58
2022/07/01 08:35:37;;;;;;;21.85;5.03;;;;;;;16.12;74.94;101369.50;5098893;28;20058;-58
2022/07/01 08:38:04;;;;;;;11.25;5.18;;;;;;;16.22;73.61;101358.56;5108611;28;20040;-58
2022/07/01 08:40:32;;;;;;;12.73;4.63;;;;;;;16.27;74.67;101362.38;5101829;28;20092;-59
2022/07/01 08:43:00;;;;;;;12.15;4.95;;;;;;;16.28;76.02;101374.75;5094573;28;20096;-58
2022/07/01 08:45:30;;;;;;;15.88;5.82;;;;;;;16.43;74.74;101384.72;5111325;28;20051;-58
2022/07/01 08:48:00;;;;;;;14.45;5.30;;;;;;;16.32;75.28;101396.66;5097669;28;20119;-58
2022/07/01 08:50:29;;;;;;;15.05;5.15;;;;;;;16.36;71.22;101389.94;5108652;28;20393;-58
2022/07/01 08:52:56;;;;;;;13.63;4.60;;;;;;;16.35;71.14;101387.41;5096205;28;20458;-57
2022/07/01 08:55:23;;;;;;;15.10;4.85;;;;;;;16.45;71.65;101391.53;5102401;28;20138;-58
2022/07/01 08:57:51;;;;;;;13.60;4.85;;;;;;;16.73;72.87;101390.19;5099059;28;20087;-59
2022/07/01 09:00:18;;;;;;;12.50;4.47;;;;;;;16.82;70.79;101397.97;5093205;28;20052;-60
2022/07/01 09:03:03;;;;;;;16.45;6.40;;;;;;;16.89;68.32;101398.13;5100561;28;20047;-59
2022/07/01 09:05:31;;;;;;;15.43;4.93;;;;;;;16.88;71.00;101393.78;5091720;28;20040;-59
2022/07/01 09:08:01;;;;;;;21.05;4.55;;;;;;;17.02;71.06;101393.00;5107129;28;20048;-59
2022/07/01 09:10:31;;;;;;;12.80;4.05;;;;;;;17.15;68.77;101384.31;5104145;28;20556;-59
2022/07/01 09:13:04;;;;;;;12.93;3.95;;;;;;;17.32;66.95;101389.53;5089901;28;20079;-58
2022/07/01 09:15:32;;;;;;;13.07;4.10;;;;;;;17.38;67.59;101384.28;5109763;27;20060;-58
2022/07/01 09:18:15;;;;;;;12.13;4.00;;;;;;;17.60;68.56;101377.16;5100320;28;20044;-58
2022/07/01 09:20:44;;;;;;;9.95;3.80;;;;;;;17.90;67.55;101387.09;5099234;28;20080;-59
2022/07/01 09:23:13;;;;;;;14.13;3.95;;;;;;;17.85;66.44;101379.59;5107591;28;20047;-58
2022/07/01 09:25:43;;;;;;;10.60;3.20;;;;;;;17.74;65.59;101374.69;5090242;28;20048;-58
2022/07/01 09:28:16;;;;;;;11.13;3.10;;;;;;;17.91;65.29;101375.34;5110029;28;20134;-58
2022/07/01 09:30:47;;;;;;;12.38;3.03;;;;;;;17.77;65.79;101377.84;5099087;28;20406;-58
2022/07/01 09:33:16;;;;;;;8.43;2.97;;;;;;;17.84;64.90;101383.25;5089218;28;20048;-58
2022/07/01 09:35:44;;;;;;;11.93;3.40;;;;;;;17.79;64.44;101389.22;5107372;28;20040;-58
2022/07/01 09:38:14;;;;;;;11.27;3.50;;;;;;;17.81;64.52;101380.97;5097567;28;20449;-59
2022/07/01 09:43:34;;;;;;;11.80;2.95;;;;;;;18.02;62.39;101394.47;5168269;27;20386;-57
2022/07/01 09:46:04;;;;;;;12.15;3.30;;;;;;;18.14;61.34;101384.09;5136190;27;20111;-57
2022/07/01 09:51:15;;;;;;;9.48;2.88;;;;;;;18.25;63.62;101393.53;5118768;27;20354;-57
2022/07/01 09:53:43;;;;;;;13.05;3.42;;;;;;;18.18;61.15;101400.66;5111993;28;20394;-57
2022/07/01 09:56:10;;;;;;;12.10;3.10;;;;;;;17.94;62.98;101399.97;5110568;28;20067;-58
2022/07/01 09:58:38;;;;;;;8.85;2.95;;;;;;;18.18;61.72;101411.41;5120061;28;20545;-57
2022/07/01 10:01:08;;;;;;;11.32;2.83;;;;;;;18.38;60.72;101403.59;5121065;27;20052;-57
2022/07/01 10:03:37;;;;;;;9.60;2.50;;;;;;;18.61;62.58;101398.06;5116759;27;20047;-58
2022/07/01 10:12:12;;;;;;;12.57;2.33;;;;;;;18.51;57.68;101406.41;5086251;27;20388;-57
2022/07/01 10:14:41;;;;;;;11.45;2.72;;;;;;;18.83;57.48;101412.34;5072070;28;20401;-58
2022/07/01 10:17:08;;;;;;;8.73;2.40;;;;;;;18.73;58.57;101404.56;5080897;28;20448;-58
2022/07/01 10:19:35;;;;;;;10.82;3.13;;;;;;;18.90;57.24;101401.63;5053424;28;20048;-57
2022/07/01 10:22:26;;;;;;;6.57;2.22;;;;;;;19.23;54.48;101398.38;5075689;28;20045;-57
2022/07/01 10:24:53;;;;;;;8.85;2.15;;;;;;;19.29;52.77;101403.00;5070228;28;20155;-57
2022/07/01 10:27:23;;;;;;;10.90;2.50;;;;;;;19.38;53.63;101404.53;5069058;28;20076;-58
2022/07/01 10:30:14;;;;;;;11.52;2.30;;;;;;;19.72;53.49;101408.25;5072180;28;20040;-58
2022/07/01 10:32:48;;;;;;;21.03;7.70;;;;;;;20.02;53.11;101408.84;5063732;28;20444;-58
2022/07/01 10:35:36;;;;;;;9.27;2.58;;;;;;;19.74;51.56;101400.84;5090061;28;20370;-58
2022/07/01 10:38:03;;;;;;;10.35;2.88;;;;;;;19.98;52.26;101407.59;5072630;28;20045;-57
2022/07/01 10:40:48;;;;;;;12.68;2.60;;;;;;;20.33;51.55;101402.13;5069671;28;20033;-52
2022/07/01 10:43:17;;;;;;;8.73;2.63;;;;;;;19.93;51.46;101401.97;5074333;28;20056;-53
2022/07/01 10:45:46;;;;;;;8.48;2.40;;;;;;;19.63;51.94;101404.03;5080370;28;20056;-51
2022/07/01 10:48:23;;;;;;;9.45;2.45;;;;;;;19.45;53.81;101405.41;5076754;28;20369;-50
2022/07/01 10:50:52;;;;;;;8.63;2.30;;;;;;;19.36;52.04;101403.88;5058828;28;20072;-53
2022/07/01 10:53:20;;;;;;;7.72;2.20;;;;;;;19.49;53.25;101397.75;5070103;28;20063;-51
2022/07/01 10:55:50;;;;;;;9.98;2.60;;;;;;;19.73;54.11;101399.19;5080336;28;20068;-51
2022/07/01 10:58:36;;;;;;;9.50;3.42;;;;;;;19.97;51.72;101394.31;5066075;28;20044;-52
2022/07/01 11:01:03;;;;;;;26.52;6.20;;;;;;;20.06;52.07;101403.88;5080108;28;20051;-50
2022/07/01 11:03:34;;;;;;;9.27;2.40;;;;;;;20.21;52.45;101395.66;5070998;28;20048;-49
2022/07/01 11:06:01;;;;;;;9.70;2.10;;;;;;;19.54;50.26;101398.84;5071708;28;20049;-55
2022/07/01 11:08:28;;;;;;;8.48;2.22;;;;;;;19.64;51.29;101395.78;5069202;28;20668;-54
2022/07/01 11:11:01;;;;;;;7.90;2.10;;;;;;;19.98;50.65;101399.50;5079557;28;20057;-51
2022/07/01 11:13:28;;;;;;;;;;;;;;;19.80;50.46;101393.84;5085462;28;20048;-51
2022/07/01 11:15:56;;;;;;;7.80;2.20;;;;;;;19.76;51.11;101390.72;5065153;28;19960;-53
2022/07/01 11:18:23;;;;;;;10.85;2.00;;;;;;;19.87;49.87;101384.75;5078323;28;20052;-52
2022/07/01 11:20:50;;;;;;;10.35;2.22;;;;;;;19.80;49.44;101388.44;5081735;28;20045;-51
2022/07/01 11:23:19;;;;;;;8.73;1.92;;;;;;;19.87;50.34;101390.13;5063798;28;20075;-52
2022/07/01 11:25:47;;;;;;;6.78;2.00;;;;;;;20.06;50.25;101380.47;5049608;28;20049;-54
2022/07/01 11:28:14;;;;;;;10.95;2.42;;;;;;;20.17;49.51;101380.94;5045601;28;20152;-54
2022/07/01 11:30:41;;;;;;;5.65;1.70;;;;;;;20.19;48.96;101379.69;5075577;28;20095;-56
2022/07/01 11:33:09;;;;;;;6.95;1.83;;;;;;;20.45;48.32;101378.13;5042047;28;20052;-56
2022/07/01 11:41:24;;;;;;;11.13;1.98;;;;;;;21.43;47.13;101370.28;5072999;28;20075;-57
2022/07/01 11:43:52;;;;;;;8.68;2.00;;;;;;;21.32;47.40;101373.63;5061407;28;20079;-57
2022/07/01 11:46:20;;;;;;;7.95;1.92;;;;;;;21.01;45.09;101376.94;5064653;28;20090;-58